createdAt,value
2022-08-31T00:00:28.658Z,57.80
2022-08-31T00:01:28.677Z,57.70
2022-08-31T00:02:28.665Z,57.70
2022-08-31T00:03:28.617Z,57.80
2022-08-31T00:04:28.636Z,57.80
2022-08-31T00:05:28.601Z,57.90
2022-08-31T00:06:28.600Z,57.80
2022-08-31T00:07:28.566Z,57.90
2022-08-31T00:08:28.592Z,58.00
2022-08-31T00:09:28.537Z,58.00
2022-08-31T00:10:32.287Z,58.11
2022-08-31T00:11:28.536Z,58.00
2022-08-31T00:12:28.500Z,57.90
2022-08-31T00:13:28.502Z,57.90
2022-08-31T00:14:28.480Z,58.00
2022-08-31T00:15:28.451Z,58.20
2022-08-31T00:16:28.500Z,58.00
2022-08-31T00:17:28.440Z,58.20
2022-08-31T00:18:28.429Z,58.30
2022-08-31T00:19:28.401Z,58.30
2022-08-31T00:20:33.416Z,58.30
2022-08-31T00:21:29.400Z,58.30
2022-08-31T00:22:28.369Z,58.40
2022-08-31T00:23:28.361Z,58.50
2022-08-31T00:24:28.340Z,58.70
2022-08-31T00:25:28.325Z,58.61
2022-08-31T00:26:28.341Z,58.61
2022-08-31T00:27:28.353Z,58.61
2022-08-31T00:28:28.321Z,58.70
2022-08-31T00:29:28.270Z,58.81
2022-08-31T00:30:28.252Z,58.61
2022-08-31T00:31:28.291Z,58.70
2022-08-31T00:32:28.928Z,58.70
2022-08-31T00:33:28.212Z,58.81
2022-08-31T00:34:28.211Z,58.81
2022-08-31T00:35:28.194Z,58.70
2022-08-31T00:36:28.189Z,58.61
2022-08-31T00:37:28.184Z,58.50
2022-08-31T00:38:28.160Z,58.40
2022-08-31T00:39:28.142Z,58.50
2022-08-31T00:40:28.275Z,58.61
2022-08-31T00:41:28.114Z,58.70
2022-08-31T00:42:28.137Z,58.81
2022-08-31T00:43:28.135Z,58.81
2022-08-31T00:44:28.081Z,58.81
2022-08-31T00:45:28.141Z,58.91
2022-08-31T00:46:28.052Z,58.91
2022-08-31T00:47:28.062Z,59.00
2022-08-31T00:48:28.032Z,58.91
2022-08-31T00:49:28.005Z,59.11
2022-08-31T00:50:28.016Z,59.23
2022-08-31T00:51:27.975Z,59.33
2022-08-31T00:52:28.016Z,59.53
2022-08-31T00:53:28.956Z,59.64
2022-08-31T00:54:27.944Z,59.74
2022-08-31T00:55:27.927Z,59.64
2022-08-31T00:56:27.926Z,59.53
2022-08-31T00:57:34.403Z,59.64
2022-08-31T00:58:28.886Z,59.94
2022-08-31T00:59:27.877Z,59.94
2022-08-31T01:00:27.864Z,59.94
2022-08-31T01:01:27.977Z,59.94
2022-08-31T01:02:27.917Z,59.74
2022-08-31T01:03:27.827Z,59.64
2022-08-31T01:04:27.807Z,59.53
2022-08-31T01:05:27.786Z,59.53
2022-08-31T01:06:27.817Z,59.44
2022-08-31T01:07:27.789Z,59.33
2022-08-31T01:08:30.937Z,59.33
2022-08-31T01:09:27.736Z,59.44
2022-08-31T01:10:27.751Z,59.33
2022-08-31T01:11:27.717Z,59.33
2022-08-31T01:12:27.721Z,59.33
2022-08-31T01:13:27.686Z,59.23
2022-08-31T01:14:27.678Z,59.33
2022-08-31T01:15:27.655Z,59.33
2022-08-31T01:16:27.699Z,59.23
2022-08-31T01:17:27.658Z,59.23
2022-08-31T01:18:27.619Z,59.44
2022-08-31T01:19:27.616Z,59.44
2022-08-31T01:20:27.603Z,59.44
2022-08-31T01:21:27.578Z,59.53
2022-08-31T01:22:27.589Z,59.33
2022-08-31T01:23:27.561Z,59.44
2022-08-31T01:24:27.546Z,59.33
2022-08-31T01:25:33.346Z,59.44
2022-08-31T01:26:28.510Z,59.44
2022-08-31T01:27:27.519Z,59.53
2022-08-31T01:28:27.489Z,59.53
2022-08-31T01:29:27.462Z,59.64
2022-08-31T01:30:27.463Z,59.64
2022-08-31T01:31:27.484Z,59.74
2022-08-31T01:32:27.450Z,59.74
2022-08-31T01:33:27.419Z,59.44
2022-08-31T01:34:27.410Z,59.53
2022-08-31T01:35:27.391Z,59.44
2022-08-31T01:36:27.384Z,59.44
2022-08-31T01:37:29.422Z,59.53
2022-08-31T01:38:27.363Z,59.64
2022-08-31T01:39:27.341Z,59.74
2022-08-31T01:40:27.371Z,59.86
2022-08-31T01:41:27.310Z,59.53
2022-08-31T01:42:33.276Z,59.53
2022-08-31T01:43:28.280Z,59.64
2022-08-31T01:44:27.270Z,59.83
2022-08-31T01:45:27.253Z,59.74
2022-08-31T01:46:27.291Z,59.86
2022-08-31T01:47:27.242Z,59.86
2022-08-31T01:48:27.223Z,59.66
2022-08-31T01:49:27.223Z,59.96
2022-08-31T01:50:27.192Z,60.06
2022-08-31T01:51:27.173Z,60.06
2022-08-31T01:52:27.774Z,60.06
2022-08-31T01:53:27.162Z,60.16
2022-08-31T01:54:27.173Z,60.27
2022-08-31T01:55:27.132Z,60.16
2022-08-31T01:56:27.132Z,59.86
2022-08-31T01:57:30.879Z,59.86
2022-08-31T01:58:28.104Z,59.96
2022-08-31T01:59:27.065Z,59.96
2022-08-31T02:00:27.054Z,59.86
2022-08-31T02:01:32.655Z,59.96
2022-08-31T02:02:28.095Z,60.06
2022-08-31T02:03:27.014Z,60.16
2022-08-31T02:04:26.995Z,60.16
2022-08-31T02:05:26.994Z,60.19
2022-08-31T02:06:26.975Z,60.39
2022-08-31T02:07:27.091Z,60.39
2022-08-31T02:08:26.984Z,60.29
2022-08-31T02:09:26.936Z,60.49
2022-08-31T02:10:26.927Z,60.69
2022-08-31T02:11:26.926Z,60.69
2022-08-31T02:12:26.896Z,60.69
2022-08-31T02:13:26.906Z,60.60
2022-08-31T02:14:26.871Z,60.60
2022-08-31T02:15:26.846Z,60.39
2022-08-31T02:16:26.889Z,60.49
2022-08-31T02:17:26.835Z,60.39
2022-08-31T02:18:26.837Z,60.29
2022-08-31T02:19:26.807Z,60.39
2022-08-31T02:20:26.787Z,60.29
2022-08-31T02:21:26.785Z,60.39
2022-08-31T02:22:26.758Z,60.49
2022-08-31T02:23:26.776Z,60.69
2022-08-31T02:24:26.738Z,60.69
2022-08-31T02:25:26.727Z,60.89
2022-08-31T02:26:26.708Z,61.00
2022-08-31T02:27:26.698Z,61.19
2022-08-31T02:28:26.698Z,61.43
2022-08-31T02:29:26.669Z,61.50
2022-08-31T02:30:26.666Z,61.60
2022-08-31T02:31:26.705Z,61.70
2022-08-31T02:32:26.629Z,61.90
2022-08-31T02:33:26.629Z,62.20
2022-08-31T02:34:26.601Z,62.40
2022-08-31T02:35:26.592Z,63.00
2022-08-31T02:36:26.590Z,63.40
2022-08-31T02:37:26.567Z,64.01
2022-08-31T02:38:26.645Z,64.04
2022-08-31T02:39:26.539Z,64.24
2022-08-31T02:40:26.550Z,64.43
2022-08-31T02:41:26.510Z,64.94
2022-08-31T02:42:30.005Z,65.14
2022-08-31T02:43:27.583Z,65.04
2022-08-31T02:44:26.460Z,65.44
2022-08-31T02:45:26.461Z,65.84
2022-08-31T02:46:26.463Z,66.28
2022-08-31T02:47:26.431Z,66.58
2022-08-31T02:48:26.433Z,66.98
2022-08-31T02:49:26.904Z,66.98
2022-08-31T02:50:26.388Z,66.98
2022-08-31T02:51:26.379Z,67.18
2022-08-31T02:52:26.360Z,67.58
2022-08-31T02:53:26.361Z,67.78
2022-08-31T02:54:26.321Z,68.32
2022-08-31T02:55:26.321Z,68.21
2022-08-31T02:56:26.302Z,68.62
2022-08-31T02:57:26.301Z,68.82
2022-08-31T02:58:26.329Z,69.45
2022-08-31T02:59:26.270Z,69.76
2022-08-31T03:00:26.252Z,69.76
2022-08-31T03:01:26.294Z,69.96
2022-08-31T03:02:31.854Z,70.16
2022-08-31T03:03:27.233Z,69.85
2022-08-31T03:04:26.194Z,69.85
2022-08-31T03:05:26.192Z,69.15
2022-08-31T03:06:26.163Z,69.56
2022-08-31T03:07:26.163Z,69.96
2022-08-31T03:08:26.163Z,69.85
2022-08-31T03:09:26.141Z,69.52
2022-08-31T03:10:26.113Z,68.52
2022-08-31T03:11:26.103Z,68.32
2022-08-31T03:12:26.085Z,68.52
2022-08-31T03:13:26.083Z,68.62
2022-08-31T03:14:26.083Z,68.85
2022-08-31T03:15:26.053Z,69.15
2022-08-31T03:16:26.103Z,69.35
2022-08-31T03:17:26.026Z,69.06
2022-08-31T03:18:26.044Z,69.25
2022-08-31T03:19:26.025Z,69.56
2022-08-31T03:20:25.975Z,69.45
2022-08-31T03:21:25.974Z,69.56
2022-08-31T03:22:25.964Z,69.65
2022-08-31T03:23:25.947Z,69.85
2022-08-31T03:24:27.045Z,70.06
2022-08-31T03:25:25.915Z,70.26
2022-08-31T03:26:25.896Z,70.46
2022-08-31T03:27:25.895Z,70.66
2022-08-31T03:28:25.876Z,70.76
2022-08-31T03:29:25.877Z,71.06
2022-08-31T03:30:25.847Z,71.97
2022-08-31T03:31:25.914Z,72.07
2022-08-31T03:32:25.796Z,72.17
2022-08-31T03:33:25.807Z,72.41
2022-08-31T03:34:25.806Z,72.71
2022-08-31T03:35:25.777Z,72.91
2022-08-31T03:36:25.766Z,73.11
2022-08-31T03:37:25.746Z,73.71
2022-08-31T03:38:25.737Z,74.41
2022-08-31T03:39:25.746Z,74.41
2022-08-31T03:40:25.787Z,74.11
2022-08-31T03:41:25.697Z,74.11
2022-08-31T03:42:25.687Z,74.75
2022-08-31T03:43:25.668Z,75.15
2022-08-31T03:44:25.685Z,75.96
2022-08-31T03:45:25.654Z,76.53
2022-08-31T03:46:25.718Z,76.63
2022-08-31T03:47:28.314Z,77.03
2022-08-31T03:48:25.608Z,76.93
2022-08-31T03:49:25.607Z,76.63
2022-08-31T03:50:25.580Z,77.13
2022-08-31T03:51:25.559Z,77.33
2022-08-31T03:52:25.562Z,76.53
2022-08-31T03:53:25.704Z,76.93
2022-08-31T03:54:25.538Z,77.47
2022-08-31T03:55:25.507Z,77.87
2022-08-31T03:56:25.499Z,78.27
2022-08-31T03:57:25.479Z,79.99
2022-08-31T03:58:25.472Z,80.58
2022-08-31T03:59:25.470Z,80.99
2022-08-31T04:00:25.448Z,80.58
2022-08-31T04:01:25.527Z,81.59
2022-08-31T04:02:25.478Z,81.43
2022-08-31T04:03:25.400Z,81.84
2022-08-31T04:04:25.410Z,81.13
2022-08-31T04:05:25.370Z,82.14
2022-08-31T04:06:25.361Z,82.54
2022-08-31T04:07:25.329Z,82.18
2022-08-31T04:08:25.349Z,82.07
2022-08-31T04:09:25.329Z,82.48
2022-08-31T04:10:25.460Z,83.48
2022-08-31T04:11:44.887Z,83.79
2022-08-31T04:12:26.279Z,83.69
2022-08-31T04:13:29.918Z,84.39
2022-08-31T04:14:26.267Z,83.59
2022-08-31T04:15:25.251Z,83.48
2022-08-31T04:16:25.315Z,83.28
2022-08-31T04:17:25.201Z,83.28
2022-08-31T04:18:25.206Z,83.32
2022-08-31T04:19:25.189Z,83.89
2022-08-31T04:20:30.092Z,84.03
2022-08-31T04:21:26.154Z,83.83
2022-08-31T04:22:25.141Z,84.23
2022-08-31T04:23:25.124Z,84.23
2022-08-31T04:24:25.144Z,83.72
2022-08-31T04:25:25.174Z,83.83
2022-08-31T04:26:25.093Z,83.02
2022-08-31T04:27:25.078Z,83.83
2022-08-31T04:28:25.057Z,84.13
2022-08-31T04:29:25.040Z,83.83
2022-08-31T04:30:25.043Z,84.43
2022-08-31T04:31:25.041Z,84.43
2022-08-31T04:32:25.008Z,84.37
2022-08-31T04:33:24.991Z,84.67
2022-08-31T04:34:24.982Z,84.77
2022-08-31T04:35:24.969Z,84.57
2022-08-31T04:36:24.944Z,84.57
2022-08-31T04:37:24.930Z,84.88
2022-08-31T04:38:24.923Z,84.97
2022-08-31T04:39:24.952Z,85.08
2022-08-31T04:40:26.051Z,85.38
2022-08-31T04:41:24.882Z,85.58
2022-08-31T04:42:24.862Z,85.88
2022-08-31T04:43:24.833Z,85.98
2022-08-31T04:44:24.843Z,85.88
2022-08-31T04:45:24.846Z,85.78
2022-08-31T04:46:24.880Z,86.08
2022-08-31T04:47:24.805Z,85.58
2022-08-31T04:48:24.920Z,85.17
2022-08-31T04:49:24.803Z,85.08
2022-08-31T04:50:24.795Z,84.97
2022-08-31T04:51:24.755Z,85.48
2022-08-31T04:52:24.754Z,85.68
2022-08-31T04:53:24.726Z,85.78
2022-08-31T04:54:24.726Z,85.68
2022-08-31T04:55:24.740Z,85.64
2022-08-31T04:56:24.685Z,85.44
2022-08-31T04:57:24.681Z,85.34
2022-08-31T04:58:24.675Z,85.54
2022-08-31T04:59:24.648Z,85.44
2022-08-31T05:00:24.666Z,85.54
2022-08-31T05:01:24.670Z,85.44
2022-08-31T05:02:24.684Z,85.34
2022-08-31T05:03:24.597Z,85.03
2022-08-31T05:04:24.618Z,84.63
2022-08-31T05:05:24.588Z,84.43
2022-08-31T05:06:24.558Z,84.53
2022-08-31T05:07:24.547Z,84.43
2022-08-31T05:08:24.530Z,84.53
2022-08-31T05:09:24.524Z,84.43
2022-08-31T05:10:24.519Z,84.94
2022-08-31T05:11:25.192Z,84.83
2022-08-31T05:12:24.480Z,84.63
2022-08-31T05:13:24.467Z,85.03
2022-08-31T05:14:24.453Z,84.94
2022-08-31T05:15:24.456Z,85.03
2022-08-31T05:16:24.509Z,85.03
2022-08-31T05:17:24.410Z,85.14
2022-08-31T05:18:24.389Z,84.83
2022-08-31T05:19:24.389Z,84.63
2022-08-31T05:20:24.398Z,85.03
2022-08-31T05:21:24.393Z,84.83
2022-08-31T05:22:24.349Z,84.47
2022-08-31T05:23:24.457Z,84.67
2022-08-31T05:24:24.834Z,85.03
2022-08-31T05:25:24.332Z,85.24
2022-08-31T05:26:26.706Z,85.24
2022-08-31T05:27:24.279Z,85.54
2022-08-31T05:28:24.280Z,85.74
2022-08-31T05:29:24.258Z,85.74
2022-08-31T05:30:24.252Z,86.04
2022-08-31T05:31:24.278Z,86.15
2022-08-31T05:32:24.217Z,86.15
2022-08-31T05:33:24.202Z,86.04
2022-08-31T05:34:24.186Z,85.54
2022-08-31T05:35:25.041Z,85.58
2022-08-31T05:36:24.157Z,85.98
2022-08-31T05:37:24.367Z,86.04
2022-08-31T05:38:24.134Z,85.84
2022-08-31T05:39:24.129Z,86.04
2022-08-31T05:40:24.171Z,86.44
2022-08-31T05:41:24.098Z,85.54
2022-08-31T05:42:24.091Z,85.64
2022-08-31T05:43:24.063Z,85.74
2022-08-31T05:44:28.710Z,85.34
2022-08-31T05:45:25.081Z,85.64
2022-08-31T05:46:24.064Z,85.44
2022-08-31T05:47:24.014Z,85.24
2022-08-31T05:48:24.011Z,85.44
2022-08-31T05:49:28.091Z,85.14
2022-08-31T05:50:24.002Z,85.14
2022-08-31T05:51:23.963Z,85.54
2022-08-31T05:52:25.025Z,85.34
2022-08-31T05:53:23.942Z,85.44
2022-08-31T05:54:23.922Z,85.94
2022-08-31T05:55:23.931Z,86.15
2022-08-31T05:56:23.902Z,85.94
2022-08-31T05:57:26.652Z,86.24
2022-08-31T05:58:23.872Z,86.15
2022-08-31T05:59:23.873Z,86.15
2022-08-31T06:00:23.871Z,86.24
2022-08-31T06:01:23.944Z,86.04
2022-08-31T06:02:23.823Z,85.84
2022-08-31T06:03:23.812Z,86.15
2022-08-31T06:04:23.792Z,86.65
2022-08-31T06:05:23.828Z,86.55
2022-08-31T06:06:23.764Z,86.95
2022-08-31T06:07:23.750Z,87.25
2022-08-31T06:08:27.249Z,86.95
2022-08-31T06:09:23.723Z,87.25
2022-08-31T06:10:23.744Z,87.35
2022-08-31T06:11:23.694Z,87.45
2022-08-31T06:12:23.685Z,87.45
2022-08-31T06:13:23.685Z,87.15
2022-08-31T06:14:23.858Z,86.95
2022-08-31T06:15:23.664Z,86.44
2022-08-31T06:16:23.684Z,86.24
2022-08-31T06:17:23.616Z,86.55
2022-08-31T06:18:23.603Z,86.75
2022-08-31T06:19:23.583Z,86.85
2022-08-31T06:20:23.594Z,86.85
2022-08-31T06:21:23.575Z,86.95
2022-08-31T06:22:23.561Z,87.15
2022-08-31T06:23:23.638Z,87.35
2022-08-31T06:24:23.528Z,87.55
2022-08-31T06:25:23.495Z,87.55
2022-08-31T06:26:23.522Z,87.25
2022-08-31T06:27:23.475Z,87.45
2022-08-31T06:28:23.466Z,87.76
2022-08-31T06:29:23.484Z,88.16
2022-08-31T06:30:23.485Z,88.76
2022-08-31T06:31:23.515Z,89.06
2022-08-31T06:32:23.437Z,88.96
2022-08-31T06:33:23.409Z,88.46
2022-08-31T06:34:23.426Z,88.26
2022-08-31T06:35:23.377Z,87.55
2022-08-31T06:36:23.376Z,86.85
2022-08-31T06:37:23.358Z,87.35
2022-08-31T06:38:23.337Z,87.65
2022-08-31T06:39:23.328Z,87.35
2022-08-31T06:40:23.350Z,87.05
2022-08-31T06:41:23.315Z,87.25
2022-08-31T06:42:23.287Z,87.40
2022-08-31T06:43:23.267Z,87.70
2022-08-31T06:44:23.260Z,88.10
2022-08-31T06:45:23.357Z,88.10
2022-08-31T06:46:23.298Z,88.20
2022-08-31T06:47:24.224Z,88.20
2022-08-31T06:48:23.217Z,88.10
2022-08-31T06:49:23.199Z,87.29
2022-08-31T06:50:23.213Z,87.60
2022-08-31T06:51:23.188Z,88.30
2022-08-31T06:52:23.171Z,88.50
2022-08-31T06:53:23.148Z,88.70
2022-08-31T06:54:30.823Z,88.70
2022-08-31T06:55:24.139Z,88.40
2022-08-31T06:56:23.130Z,88.00
2022-08-31T06:57:23.086Z,88.30
2022-08-31T06:58:23.089Z,88.06
2022-08-31T06:59:26.530Z,88.56
2022-08-31T07:00:24.059Z,88.76
2022-08-31T07:01:35.381Z,88.81
2022-08-31T07:02:24.055Z,87.80
2022-08-31T07:03:23.036Z,86.99
2022-08-31T07:04:23.003Z,86.89
2022-08-31T07:05:24.712Z,86.69
2022-08-31T07:06:22.988Z,86.99
2022-08-31T07:07:22.957Z,87.85
2022-08-31T07:08:22.950Z,87.65
2022-08-31T07:09:22.978Z,87.15
2022-08-31T07:10:22.930Z,87.45
2022-08-31T07:11:22.921Z,87.55
2022-08-31T07:12:22.924Z,88.06
2022-08-31T07:13:22.872Z,87.05
2022-08-31T07:14:22.871Z,86.95
2022-08-31T07:15:22.853Z,87.05
2022-08-31T07:16:22.964Z,87.45
2022-08-31T07:17:22.833Z,87.85
2022-08-31T07:18:22.825Z,87.55
2022-08-31T07:19:22.793Z,86.75
2022-08-31T07:20:22.809Z,86.55
2022-08-31T07:21:22.785Z,87.25
2022-08-31T07:22:22.774Z,86.65
2022-08-31T07:23:22.743Z,87.25
2022-08-31T07:24:22.739Z,87.05
2022-08-31T07:25:22.733Z,87.05
2022-08-31T07:26:22.772Z,86.75
2022-08-31T07:27:22.704Z,87.05
2022-08-31T07:28:22.683Z,87.35
2022-08-31T07:29:22.697Z,87.96
2022-08-31T07:30:22.664Z,87.76
2022-08-31T07:31:22.760Z,87.85
2022-08-31T07:32:22.636Z,87.76
2022-08-31T07:33:22.615Z,87.65
2022-08-31T07:34:22.614Z,86.95
2022-08-31T07:35:22.584Z,86.85
2022-08-31T07:36:22.592Z,86.85
2022-08-31T07:37:22.554Z,86.95
2022-08-31T07:38:22.552Z,86.81
2022-08-31T07:39:22.584Z,86.91
2022-08-31T07:40:22.610Z,86.81
2022-08-31T07:41:22.555Z,87.01
2022-08-31T07:42:22.496Z,87.01
2022-08-31T07:43:22.475Z,86.51
2022-08-31T07:44:22.635Z,85.90
2022-08-31T07:45:22.947Z,85.40
2022-08-31T07:46:22.500Z,85.60
2022-08-31T07:47:22.821Z,85.70
2022-08-31T07:48:22.404Z,85.90
2022-08-31T07:49:22.379Z,85.60
2022-08-31T07:50:22.491Z,86.00
2022-08-31T07:51:22.367Z,86.21
2022-08-31T07:52:22.344Z,86.10
2022-08-31T07:53:22.501Z,85.90
2022-08-31T07:54:22.324Z,84.89
2022-08-31T07:55:22.317Z,85.20
2022-08-31T07:56:23.787Z,85.50
2022-08-31T07:57:22.293Z,86.10
2022-08-31T07:58:22.273Z,86.51
2022-08-31T07:59:22.264Z,86.71
2022-08-31T08:00:22.265Z,86.81
2022-08-31T08:01:22.305Z,86.10
2022-08-31T08:02:22.296Z,86.51
2022-08-31T08:05:44.577Z,85.20
2022-08-31T08:06:44.555Z,84.80
2022-08-31T08:07:44.547Z,85.30
2022-08-31T08:08:57.045Z,86.21
2022-08-31T08:09:45.512Z,86.00
2022-08-31T08:10:46.804Z,85.50
2022-08-31T08:11:45.495Z,86.26
2022-08-31T08:12:44.472Z,86.87
2022-08-31T08:13:44.492Z,85.96
2022-08-31T08:14:44.438Z,85.76
2022-08-31T08:15:44.535Z,85.66
2022-08-31T08:16:44.484Z,85.56
2022-08-31T08:17:44.419Z,85.36
2022-08-31T08:18:44.401Z,84.95
2022-08-31T08:19:44.379Z,84.55
2022-08-31T08:20:44.379Z,85.16
2022-08-31T08:21:44.410Z,84.75
2022-08-31T08:22:55.064Z,84.45
2022-08-31T08:23:45.339Z,84.65
2022-08-31T08:24:44.351Z,84.15
2022-08-31T08:25:44.319Z,84.25
2022-08-31T08:26:44.322Z,84.15
2022-08-31T08:27:44.299Z,84.15
2022-08-31T08:28:44.279Z,83.84
2022-08-31T08:29:44.260Z,82.54
2022-08-31T08:30:44.248Z,82.84
2022-08-31T08:31:44.341Z,83.45
2022-08-31T08:32:44.241Z,84.55
2022-08-31T08:33:44.218Z,84.25
2022-08-31T08:34:44.183Z,83.25
2022-08-31T08:35:44.181Z,83.81
2022-08-31T08:36:44.182Z,85.02
2022-08-31T08:37:57.621Z,85.62
2022-08-31T08:38:45.138Z,85.72
2022-08-31T08:39:44.143Z,86.02
2022-08-31T08:40:44.150Z,84.81
2022-08-31T08:41:44.120Z,84.21
2022-08-31T08:42:44.082Z,84.41
2022-08-31T08:43:44.146Z,84.67
2022-08-31T08:44:45.060Z,84.47
2022-08-31T08:45:44.092Z,83.47
2022-08-31T08:46:44.442Z,83.67
2022-08-31T08:47:44.107Z,84.37
2022-08-31T08:48:44.012Z,84.88
2022-08-31T08:49:44.005Z,84.67
2022-08-31T08:50:44.016Z,85.33
2022-08-31T08:51:44.008Z,85.64
2022-08-31T08:52:43.954Z,84.63
2022-08-31T08:53:43.943Z,84.03
2022-08-31T08:54:43.933Z,84.53
2022-08-31T08:55:43.922Z,83.93
2022-08-31T08:56:43.903Z,83.83
2022-08-31T08:57:43.936Z,82.68
2022-08-31T08:58:43.873Z,82.48
2022-08-31T08:59:43.865Z,80.98
2022-08-31T09:00:43.859Z,81.48
2022-08-31T09:01:43.911Z,81.68
2022-08-31T09:02:43.888Z,82.14
2022-08-31T09:03:43.815Z,81.24
2022-08-31T09:04:43.784Z,81.44
2022-08-31T09:05:43.785Z,80.83
2022-08-31T09:06:45.815Z,80.13
2022-08-31T09:07:43.829Z,79.73
2022-08-31T09:08:43.744Z,79.53
2022-08-31T09:09:43.717Z,77.42
2022-08-31T09:10:43.731Z,77.59
2022-08-31T09:11:43.704Z,77.48
2022-08-31T09:12:43.696Z,76.78
2022-08-31T09:13:43.675Z,76.48
2022-08-31T09:14:43.646Z,76.89
2022-08-31T09:15:43.697Z,77.39
2022-08-31T09:16:43.636Z,75.14
2022-08-31T09:17:43.615Z,75.45
2022-08-31T09:18:43.591Z,76.04
2022-08-31T09:19:43.591Z,75.74
2022-08-31T09:20:43.568Z,75.54
2022-08-31T09:21:43.576Z,76.25
2022-08-31T09:22:43.536Z,76.41
2022-08-31T09:23:43.526Z,76.31
2022-08-31T09:24:43.527Z,76.41
2022-08-31T09:25:43.498Z,77.01
2022-08-31T09:26:43.507Z,75.97
2022-08-31T09:27:43.478Z,75.27
2022-08-31T09:28:43.459Z,73.97
2022-08-31T09:29:43.448Z,72.86
2022-08-31T09:30:43.444Z,72.06
2022-08-31T09:31:43.496Z,72.27
2022-08-31T09:32:43.410Z,73.67
2022-08-31T09:33:43.399Z,74.17
2022-08-31T09:34:43.378Z,72.36
2022-08-31T09:35:43.369Z,72.53
2022-08-31T09:36:43.369Z,72.63
2022-08-31T09:37:43.339Z,72.03
2022-08-31T09:38:43.309Z,72.53
2022-08-31T09:39:43.319Z,72.23
2022-08-31T09:40:43.405Z,72.23
2022-08-31T09:41:43.310Z,72.03
2022-08-31T09:42:43.269Z,72.53
2022-08-31T09:43:43.262Z,71.83
2022-08-31T09:44:43.249Z,71.03
2022-08-31T09:45:43.287Z,71.63
2022-08-31T09:46:43.220Z,71.33
2022-08-31T09:47:43.222Z,71.39
2022-08-31T09:48:43.195Z,70.79
2022-08-31T09:49:43.182Z,70.89
2022-08-31T09:50:43.160Z,70.89
2022-08-31T09:51:43.151Z,70.19
2022-08-31T09:52:43.140Z,69.89
2022-08-31T09:53:43.140Z,69.69
2022-08-31T09:54:46.893Z,69.09
2022-08-31T09:55:43.131Z,69.39
2022-08-31T09:56:43.111Z,69.89
2022-08-31T09:57:43.072Z,69.69
2022-08-31T09:58:43.063Z,69.19
2022-08-31T09:59:43.052Z,68.69
2022-08-31T10:00:43.034Z,68.59
2022-08-31T10:01:43.128Z,67.69
2022-08-31T10:02:43.004Z,67.99
2022-08-31T10:03:42.993Z,67.86
2022-08-31T10:04:43.020Z,65.86
2022-08-31T10:05:42.971Z,66.96
2022-08-31T10:06:43.011Z,67.16
2022-08-31T10:07:42.944Z,66.55
2022-08-31T10:08:42.923Z,67.36
2022-08-31T10:09:42.923Z,67.25
2022-08-31T10:10:42.891Z,66.36
2022-08-31T10:11:42.885Z,66.66
2022-08-31T10:12:42.885Z,66.05
2022-08-31T10:13:42.863Z,65.95
2022-08-31T10:14:42.850Z,65.36
2022-08-31T10:15:42.930Z,66.05
2022-08-31T10:16:42.841Z,66.75
2022-08-31T10:17:43.815Z,66.66
2022-08-31T10:18:42.791Z,66.46
2022-08-31T10:19:42.780Z,66.86
2022-08-31T10:20:42.755Z,66.36
2022-08-31T10:21:42.775Z,66.52
2022-08-31T10:22:42.746Z,66.52
2022-08-31T10:23:42.717Z,65.83
2022-08-31T10:24:42.711Z,66.02
2022-08-31T10:25:42.698Z,66.13
2022-08-31T10:26:42.677Z,65.12
2022-08-31T10:27:42.694Z,65.02
2022-08-31T10:28:42.657Z,66.13
2022-08-31T10:29:42.645Z,65.42
2022-08-31T10:30:42.663Z,65.02
2022-08-31T10:31:42.617Z,64.72
2022-08-31T10:32:42.643Z,64.52
2022-08-31T10:33:42.597Z,64.42
2022-08-31T10:34:42.567Z,65.02
2022-08-31T10:35:42.577Z,65.59
2022-08-31T10:36:42.542Z,64.39
2022-08-31T10:37:42.556Z,65.89
2022-08-31T10:38:42.527Z,66.19
2022-08-31T10:39:42.507Z,65.99
2022-08-31T10:40:42.519Z,65.26
2022-08-31T10:41:42.478Z,65.46
2022-08-31T10:42:42.486Z,64.66
2022-08-31T10:43:42.449Z,64.16
2022-08-31T10:44:49.843Z,64.06
2022-08-31T10:45:43.423Z,64.66
2022-08-31T10:46:42.449Z,64.56
2022-08-31T10:47:42.429Z,63.43
2022-08-31T10:48:42.379Z,63.13
2022-08-31T10:49:43.380Z,63.33
2022-08-31T10:50:42.365Z,63.53
2022-08-31T10:51:42.343Z,63.53
2022-08-31T10:52:42.352Z,63.43
2022-08-31T10:53:42.323Z,62.34
2022-08-31T10:54:42.303Z,61.93
2022-08-31T10:55:42.290Z,62.23
2022-08-31T10:56:42.333Z,62.43
2022-08-31T10:57:42.276Z,63.63
2022-08-31T10:58:42.275Z,63.03
2022-08-31T10:59:45.911Z,63.63
2022-08-31T11:00:42.218Z,62.93
2022-08-31T11:01:42.257Z,63.60
2022-08-31T11:02:42.201Z,62.73
2022-08-31T11:03:42.200Z,62.73
2022-08-31T11:04:42.217Z,62.81
2022-08-31T11:05:42.151Z,63.80
2022-08-31T11:06:42.141Z,63.30
2022-08-31T11:07:42.141Z,62.81
2022-08-31T11:08:42.135Z,62.90
2022-08-31T11:09:42.105Z,62.70
2022-08-31T11:10:42.094Z,62.81
2022-08-31T11:11:42.495Z,62.77
2022-08-31T11:12:42.062Z,61.87
2022-08-31T11:13:45.144Z,62.24
2022-08-31T11:14:43.044Z,62.64
2022-08-31T11:15:42.091Z,61.44
2022-08-31T11:16:42.069Z,60.25
2022-08-31T11:17:41.989Z,60.22
2022-08-31T11:18:41.984Z,60.82
2022-08-31T11:19:41.993Z,61.02
2022-08-31T11:20:41.970Z,60.52
2022-08-31T11:21:41.957Z,61.71
2022-08-31T11:22:41.934Z,61.61
2022-08-31T11:23:43.042Z,61.52
2022-08-31T11:24:41.979Z,61.11
2022-08-31T11:25:41.887Z,60.42
2022-08-31T11:26:41.884Z,59.42
2022-08-31T11:27:41.864Z,59.12
2022-08-31T11:28:42.415Z,61.52
2022-08-31T11:29:41.846Z,61.02
2022-08-31T11:30:42.247Z,60.75
2022-08-31T11:31:41.945Z,61.15
2022-08-31T11:32:41.786Z,61.44
2022-08-31T11:33:55.282Z,60.15
2022-08-31T11:34:42.787Z,60.75
2022-08-31T11:35:42.206Z,60.65
2022-08-31T11:36:41.747Z,60.52
2022-08-31T11:37:41.737Z,60.82
2022-08-31T11:38:41.715Z,60.59
2022-08-31T11:39:41.719Z,59.19
2022-08-31T11:40:41.986Z,58.89
2022-08-31T11:41:41.680Z,58.37
2022-08-31T11:42:41.657Z,58.47
2022-08-31T11:43:41.650Z,58.07
2022-08-31T11:44:41.680Z,57.84
2022-08-31T11:45:41.677Z,57.05
2022-08-31T11:46:41.656Z,57.05
2022-08-31T11:47:41.588Z,56.95
2022-08-31T11:48:41.583Z,56.05
2022-08-31T11:49:41.585Z,57.05
2022-08-31T11:50:41.567Z,56.85
2022-08-31T11:51:41.935Z,56.32
2022-08-31T11:52:41.538Z,56.32
2022-08-31T11:53:41.530Z,57.22
2022-08-31T11:54:41.527Z,57.89
2022-08-31T11:55:41.476Z,56.30
2022-08-31T11:56:41.487Z,56.20
2022-08-31T11:57:41.468Z,55.18
2022-08-31T11:58:41.448Z,55.67
2022-08-31T11:59:41.449Z,55.47
2022-08-31T12:00:41.422Z,55.08
2022-08-31T12:01:41.451Z,54.08
2022-08-31T12:02:41.457Z,54.68
2022-08-31T12:03:41.380Z,54.78
2022-08-31T12:04:41.391Z,54.88
2022-08-31T12:05:41.391Z,55.27
2022-08-31T12:06:41.342Z,54.97
2022-08-31T12:07:41.330Z,54.78
2022-08-31T12:08:41.322Z,54.60
2022-08-31T12:09:41.354Z,54.60
2022-08-31T12:10:41.298Z,55.00
2022-08-31T12:11:41.340Z,55.10
2022-08-31T12:12:41.262Z,55.20
2022-08-31T12:13:41.249Z,55.20
2022-08-31T12:14:41.253Z,55.10
2022-08-31T12:15:41.273Z,54.60
2022-08-31T12:16:41.296Z,54.58
2022-08-31T12:17:41.202Z,53.98
2022-08-31T12:18:41.213Z,53.98
2022-08-31T12:19:41.172Z,54.78
2022-08-31T12:20:41.152Z,54.71
2022-08-31T12:21:41.140Z,53.81
2022-08-31T12:22:41.143Z,54.80
2022-08-31T12:23:41.104Z,55.03
2022-08-31T12:24:49.029Z,54.73
2022-08-31T12:25:42.074Z,54.73
2022-08-31T12:26:45.079Z,54.73
2022-08-31T12:27:41.070Z,54.60
2022-08-31T12:28:41.044Z,55.10
2022-08-31T12:29:41.024Z,54.18
2022-08-31T12:30:41.087Z,54.48
2022-08-31T12:31:41.043Z,54.38
2022-08-31T12:32:40.984Z,54.25
2022-08-31T12:33:41.062Z,53.88
2022-08-31T12:34:40.973Z,53.98
2022-08-31T12:35:40.964Z,52.99
2022-08-31T12:36:40.936Z,54.31
2022-08-31T12:37:40.905Z,54.21
2022-08-31T12:38:40.916Z,54.53
2022-08-31T12:39:40.894Z,55.13
2022-08-31T12:40:40.959Z,55.03
2022-08-31T12:41:40.906Z,55.23
2022-08-31T12:42:40.868Z,55.16
2022-08-31T12:43:40.857Z,55.26
2022-08-31T12:44:40.816Z,55.88
2022-08-31T12:45:40.836Z,55.88
2022-08-31T12:46:40.896Z,55.28
2022-08-31T12:47:40.779Z,55.98
2022-08-31T12:48:40.781Z,56.30
2022-08-31T12:49:40.775Z,56.81
2022-08-31T12:50:40.768Z,56.10
2022-08-31T12:51:40.738Z,56.10
2022-08-31T12:52:40.817Z,58.00
2022-08-31T12:53:40.710Z,57.23
2022-08-31T12:54:40.718Z,56.13